createdAt,value
2019-05-04T00:00:20.804Z,1001.45
2019-05-04T00:01:01.388Z,1001.47
2019-05-04T00:01:41.946Z,1001.48
2019-05-04T00:02:22.532Z,1001.48
2019-05-04T00:03:05.191Z,1001.46
2019-05-04T00:03:44.273Z,1001.45
2019-05-04T00:04:25.287Z,1001.48
2019-05-04T00:05:04.836Z,1001.42
2019-05-04T00:05:45.389Z,1001.44
2019-05-04T00:06:25.994Z,1001.46
2019-05-04T00:07:06.554Z,1001.43
2019-05-04T00:07:47.105Z,1001.43
2019-05-04T00:08:27.649Z,1001.46
2019-05-04T00:09:08.230Z,1001.44
2019-05-04T00:09:48.790Z,1001.43
2019-05-04T00:10:29.470Z,1001.41
2019-05-04T00:11:10.023Z,1001.43
2019-05-04T00:11:50.599Z,1001.43
2019-05-04T00:12:31.243Z,1001.4
2019-05-04T00:13:11.816Z,1001.41
2019-05-04T00:13:54.242Z,1001.43
2019-05-04T00:14:35.013Z,1001.42
2019-05-04T00:15:14.461Z,1001.4
2019-05-04T00:15:54.775Z,1001.4
2019-05-04T00:16:34.683Z,1001.4
2019-05-04T00:17:15.321Z,1001.49
2019-05-04T00:17:55.943Z,1001.39
2019-05-04T00:18:36.529Z,1001.4
2019-05-04T00:19:17.124Z,1001.36
2019-05-04T00:19:57.771Z,1001.35
2019-05-04T00:20:50.150Z,1001.37
2019-05-04T00:21:19.122Z,1001.35
2019-05-04T00:21:59.682Z,1001.38
2019-05-04T00:22:40.299Z,1001.35
2019-05-04T00:23:20.840Z,1001.36
2019-05-04T00:24:01.408Z,1001.37
2019-05-04T00:24:41.993Z,1001.36
2019-05-04T00:25:22.567Z,1001.36
2019-05-04T00:26:04.635Z,1001.37
2019-05-04T00:26:44.974Z,1001.34
2019-05-04T00:27:24.895Z,1001.36
2019-05-04T00:28:05.533Z,1001.4
2019-05-04T00:28:45.443Z,1001.37
2019-05-04T00:29:26.041Z,1001.37
2019-05-04T00:30:06.604Z,1001.37
2019-05-04T00:30:47.215Z,1001.38
2019-05-04T00:31:27.788Z,1001.35
2019-05-04T00:32:08.395Z,1001.38
2019-05-04T00:32:48.943Z,1001.37
2019-05-04T00:33:29.573Z,1001.4
2019-05-04T00:34:10.106Z,1001.42
2019-05-04T00:34:50.696Z,1001.38
2019-05-04T00:35:31.266Z,1001.35
2019-05-04T00:36:11.835Z,1001.34
2019-05-04T00:37:01.986Z,1001.35
2019-05-04T00:37:34.977Z,1001.33
2019-05-04T00:38:15.338Z,1001.32
2019-05-04T00:38:54.359Z,1001.27
2019-05-04T00:39:35.505Z,1001.3
2019-05-04T00:40:15.305Z,1001.33
2019-05-04T00:40:55.860Z,1001.32
2019-05-04T00:41:36.529Z,1001.29
2019-05-04T00:42:17.100Z,1001.3
2019-05-04T00:42:57.677Z,1001.27
2019-05-04T00:43:38.272Z,1001.26
2019-05-04T00:44:18.849Z,1001.29
2019-05-04T00:44:59.436Z,1001.29
2019-05-04T00:45:40.016Z,1001.27
2019-05-04T00:46:20.611Z,1001.27
2019-05-04T00:47:01.171Z,1001.29
2019-05-04T00:47:41.739Z,1001.3
2019-05-04T00:48:22.333Z,1001.29
2019-05-04T00:49:04.776Z,1001.27
2019-05-04T00:49:44.853Z,1001.25
2019-05-04T00:50:25.243Z,1001.26
2019-05-04T00:51:05.542Z,1001.25
2019-05-04T00:51:45.797Z,1001.24
2019-05-04T00:52:25.723Z,1001.26
2019-05-04T00:53:06.302Z,1001.24
2019-05-04T00:53:46.854Z,1001.25
2019-05-04T00:54:27.452Z,1001.23
2019-05-04T00:55:08.037Z,1001.28
2019-05-04T00:55:48.581Z,1001.26
2019-05-04T00:56:29.140Z,1001.28
2019-05-04T00:57:09.705Z,1001.29
2019-05-04T00:57:50.270Z,1001.27
2019-05-04T00:58:30.825Z,1001.23
2019-05-04T00:59:11.411Z,1001.24
2019-05-04T00:59:51.963Z,1001.26
2019-05-04T01:00:34.631Z,1001.26
2019-05-04T01:01:14.720Z,1001.21
2019-05-04T01:01:55.145Z,1001.23
2019-05-04T01:02:35.872Z,1001.22
2019-05-04T01:03:14.766Z,1001.23
2019-05-04T01:03:56.117Z,1001.26
2019-05-04T01:04:35.952Z,1001.23
2019-05-04T01:05:16.505Z,1001.26
2019-05-04T01:05:57.082Z,1001.25
2019-05-04T01:06:37.648Z,1001.28
2019-05-04T01:07:21.258Z,1001.21
2019-05-04T01:07:58.864Z,1001.21
2019-05-04T01:08:39.455Z,1001.22
2019-05-04T01:09:20.009Z,1001.24
2019-05-04T01:10:00.601Z,1001.23
2019-05-04T01:10:41.173Z,1001.29
2019-05-04T01:11:21.729Z,1001.27
2019-05-04T01:12:04.555Z,1001.24
2019-05-04T01:12:42.868Z,1001.25
2019-05-04T01:13:24.774Z,1001.27
2019-05-04T01:14:04.430Z,1001.3
2019-05-04T01:14:45.372Z,1001.3
2019-05-04T01:15:25.413Z,1001.3
2019-05-04T01:16:06.085Z,1001.3
2019-05-04T01:16:46.646Z,1001.32
2019-05-04T01:17:27.217Z,1001.33
2019-05-04T01:18:07.767Z,1001.3
2019-05-04T01:18:48.316Z,1001.32
2019-05-04T01:19:28.867Z,1001.31
2019-05-04T01:20:09.431Z,1001.3
2019-05-04T01:20:50.043Z,1001.27
2019-05-04T01:21:30.640Z,1001.26
2019-05-04T01:22:11.198Z,1001.27
2019-05-04T01:22:51.753Z,1001.27
2019-05-04T01:23:32.369Z,1001.21
2019-05-04T01:24:14.690Z,1001.2
2019-05-04T01:24:55.158Z,1001.22
2019-05-04T01:25:35.012Z,1001.19
2019-05-04T01:26:15.275Z,1001.18
2019-05-04T01:26:55.230Z,1001.17
2019-05-04T01:27:35.794Z,1001.11
2019-05-04T01:28:16.386Z,1001.13
2019-05-04T01:28:56.949Z,1001.16
2019-05-04T01:29:37.551Z,1001.13
2019-05-04T01:30:18.105Z,1001.12
2019-05-04T01:30:58.653Z,1001.1
2019-05-04T01:31:39.263Z,1001.12
2019-05-04T01:32:19.823Z,1001.1
2019-05-04T01:33:00.405Z,1001.08
2019-05-04T01:33:40.969Z,1001.06
2019-05-04T01:34:21.528Z,1001.05
2019-05-04T01:35:02.118Z,1001.07
2019-05-04T01:35:42.682Z,1001.08
2019-05-04T01:36:23.240Z,1001.07
2019-05-04T01:37:04.431Z,1001.07
2019-05-04T01:37:45.168Z,1001.07
2019-05-04T01:38:25.129Z,1001.03
2019-05-04T01:39:05.484Z,1001.01
2019-05-04T01:39:46.040Z,1001.06
2019-05-04T01:40:26.588Z,1001.01
2019-05-04T01:41:07.200Z,1000.96
2019-05-04T01:41:47.755Z,1000.96
2019-05-04T01:42:28.356Z,1000.98
2019-05-04T01:43:08.943Z,1000.98
2019-05-04T01:43:49.533Z,1000.96
2019-05-04T01:44:30.079Z,1001
2019-05-04T01:45:10.663Z,1000.95
2019-05-04T01:45:51.242Z,1000.98
2019-05-04T01:46:31.789Z,1000.97
2019-05-04T01:47:12.380Z,1000.93
2019-05-04T01:47:52.936Z,1000.98
2019-05-04T01:48:34.582Z,1000.98
2019-05-04T01:49:15.287Z,1000.98
2019-05-04T01:49:55.158Z,1001.06
2019-05-04T01:50:37.579Z,1001.02
2019-05-04T01:51:15.832Z,1001.02
2019-05-04T01:51:56.395Z,1001.02
2019-05-04T01:52:37.016Z,1000.99
2019-05-04T01:53:17.594Z,1001.02
2019-05-04T01:53:58.147Z,1001.01
2019-05-04T01:54:38.717Z,1001
2019-05-04T01:55:19.281Z,1000.99
2019-05-04T01:55:59.824Z,1001
2019-05-04T01:56:40.381Z,1001.01
2019-05-04T01:57:20.956Z,1000.97
2019-05-04T01:58:01.518Z,1000.95
2019-05-04T01:58:42.087Z,1000.98
2019-05-04T01:59:22.644Z,1000.97
2019-05-04T02:00:05.053Z,1000.95
2019-05-04T02:00:45.060Z,1000.97
2019-05-04T02:01:25.832Z,1000.97
2019-05-04T02:02:05.248Z,1000.97
2019-05-04T02:02:45.570Z,1000.96
2019-05-04T02:03:26.153Z,1001.01
2019-05-04T02:04:06.713Z,1000.94
2019-05-04T02:04:47.353Z,1000.96
2019-05-04T02:05:27.936Z,1000.96
2019-05-04T02:06:08.496Z,1000.98
2019-05-04T02:06:49.125Z,1000.91
2019-05-04T02:07:41.728Z,1000.94
2019-05-04T02:08:10.296Z,1000.96
2019-05-04T02:08:50.911Z,1000.92
2019-05-04T02:09:31.513Z,1000.98
2019-05-04T02:10:12.072Z,1000.97
2019-05-04T02:10:54.430Z,1000.92
2019-05-04T02:11:34.468Z,1000.91
2019-05-04T02:12:15.383Z,1000.93
2019-05-04T02:12:55.314Z,1000.94
2019-05-04T02:13:34.939Z,1000.89
2019-05-04T02:14:15.530Z,1000.9
2019-05-04T02:14:56.094Z,1000.87
2019-05-04T02:15:36.995Z,1000.93
2019-05-04T02:16:17.569Z,1000.93
2019-05-04T02:16:58.161Z,1000.91
2019-05-04T02:17:38.761Z,1000.86
2019-05-04T02:18:19.364Z,1000.85
2019-05-04T02:18:59.930Z,1000.86
2019-05-04T02:19:40.530Z,1000.86
2019-05-04T02:20:21.086Z,1000.86
2019-05-04T02:21:01.653Z,1000.86
2019-05-04T02:21:42.223Z,1000.92
2019-05-04T02:22:24.872Z,1000.91
2019-05-04T02:23:04.682Z,1000.91
2019-05-04T02:23:44.444Z,1000.92
2019-05-04T02:24:25.047Z,1000.9
2019-05-04T02:25:05.278Z,1000.92
2019-05-04T02:25:45.910Z,1000.93
2019-05-04T02:26:26.479Z,1000.92
2019-05-04T02:27:07.107Z,1000.92
2019-05-04T02:27:47.702Z,1000.9
2019-05-04T02:31:01.601Z,1000.88
2019-05-04T02:31:42.156Z,1000.91
2019-05-04T02:32:25.699Z,1000.88
2019-05-04T02:33:05.890Z,1000.91
2019-05-04T02:33:46.535Z,1000.91
2019-05-04T02:34:26.377Z,1000.88
2019-05-04T02:35:05.467Z,1000.88
2019-05-04T02:35:45.977Z,1000.88
2019-05-04T02:36:27.070Z,1000.85
2019-05-04T02:37:07.691Z,1000.84
2019-05-04T02:38:03.951Z,1000.86
2019-05-04T02:38:29.545Z,1000.81
2019-05-04T02:39:10.294Z,1000.82
2019-05-04T02:39:51.512Z,1000.87
2019-05-04T02:40:39.261Z,1000.83
2019-05-04T02:41:15.760Z,1000.81
2019-05-04T02:41:55.154Z,1000.79
2019-05-04T02:42:35.442Z,1000.8
2019-05-04T02:43:15.765Z,1000.86
2019-05-04T02:46:29.899Z,1000.84
2019-05-04T02:47:10.715Z,1000.86
2019-05-04T02:47:51.463Z,1000.85
2019-05-04T02:48:35.244Z,1000.81
2019-05-04T02:49:15.879Z,1000.84
2019-05-04T02:49:56.052Z,1000.77
2019-05-04T02:50:35.724Z,1000.83
2019-05-04T02:51:16.127Z,1000.74
2019-05-04T02:51:56.576Z,1000.77
2019-05-04T02:52:37.209Z,1000.73
2019-05-04T02:53:18.129Z,1000.75
2019-05-04T02:53:58.847Z,1000.73
2019-05-04T02:54:39.821Z,1000.75
2019-05-04T02:57:55.789Z,1000.72
2019-05-04T02:58:38.208Z,1000.68
2019-05-04T02:59:15.707Z,1000.72
2019-05-04T02:59:56.641Z,1000.7
2019-05-04T03:00:37.254Z,1000.67
2019-05-04T03:01:17.797Z,1000.66
2019-05-04T03:01:58.451Z,1000.66
2019-05-04T03:02:39.007Z,1000.68
2019-05-04T03:03:19.596Z,1000.67
2019-05-04T03:04:00.161Z,1000.66
2019-05-04T03:04:40.719Z,1000.67
2019-05-04T03:05:21.267Z,1000.68
2019-05-04T03:06:01.828Z,1000.71
2019-05-04T03:06:42.418Z,1000.73
2019-05-04T03:07:26.009Z,1000.7
2019-05-04T03:08:05.525Z,1000.72
2019-05-04T03:08:46.230Z,1000.74
2019-05-04T03:09:25.421Z,1000.66
2019-05-04T03:10:06.514Z,1000.73
2019-05-04T03:10:46.308Z,1000.66
2019-05-04T03:11:26.383Z,1000.67
2019-05-04T03:12:06.963Z,1000.72
2019-05-04T03:12:47.494Z,1000.68
2019-05-04T03:13:28.078Z,1000.71
2019-05-04T03:14:08.631Z,1000.7
2019-05-04T03:14:49.238Z,1000.7
2019-05-04T03:15:29.846Z,1000.71
2019-05-04T03:16:11.064Z,1000.72
2019-05-04T03:16:51.660Z,1000.74
2019-05-04T03:17:32.209Z,1000.69
2019-05-04T03:20:31.048Z,1000.75
2019-05-04T03:21:11.596Z,1000.73
2019-05-04T03:21:52.176Z,1000.71
2019-05-04T03:22:35.535Z,1000.76
2019-05-04T03:23:14.922Z,1000.74
2019-05-04T03:23:54.967Z,1000.74
2019-05-04T03:24:35.705Z,1000.7
2019-05-04T03:25:15.754Z,1000.71
2019-05-04T03:25:56.144Z,1000.7
2019-05-04T03:26:36.508Z,1000.69
2019-05-04T03:27:16.963Z,1000.67
2019-05-04T03:27:57.355Z,1000.68
2019-05-04T03:28:37.914Z,1000.67
2019-05-04T03:29:18.497Z,1000.68
2019-05-04T03:29:59.079Z,1000.68
2019-05-04T03:30:40.104Z,1000.65
2019-05-04T03:31:20.388Z,1000.67
2019-05-04T03:32:00.847Z,1000.65
2019-05-04T03:32:41.432Z,1000.68
2019-05-04T03:33:21.985Z,1000.64
2019-05-04T03:34:07.663Z,1000.64
2019-05-04T03:34:57.580Z,1000.63
2019-05-04T03:35:34.126Z,1000.63
2019-05-04T03:36:09.284Z,1000.61
2019-05-04T03:36:48.851Z,1000.64
2019-05-04T03:37:25.572Z,1000.6
2019-05-04T03:38:06.015Z,1000.58
2019-05-04T03:38:53.644Z,1000.56
2019-05-04T03:39:27.229Z,1000.55
2019-05-04T03:40:07.750Z,1000.57
2019-05-04T03:40:48.330Z,1000.55
2019-05-04T03:41:28.878Z,1000.53
2019-05-04T03:42:09.473Z,1000.51
2019-05-04T03:42:50.046Z,1000.53
2019-05-04T03:43:30.590Z,1000.54
2019-05-04T03:44:11.201Z,1000.52
2019-05-04T03:44:51.794Z,1000.56
2019-05-04T03:45:34.514Z,1000.52
2019-05-04T03:46:15.838Z,1000.54
2019-05-04T03:46:55.960Z,1000.54
2019-05-04T03:47:35.543Z,1000.56
2019-05-04T03:48:16.027Z,1000.54
2019-05-04T03:48:56.500Z,1000.55
2019-05-04T03:49:36.386Z,1000.52
2019-05-04T03:50:16.782Z,1000.56
2019-05-04T03:50:57.011Z,1000.55
2019-05-04T03:51:37.627Z,1000.55
2019-05-04T03:52:18.194Z,1000.53
2019-05-04T03:52:58.817Z,1000.54
2019-05-04T03:53:39.375Z,1000.5
2019-05-04T03:54:19.936Z,1000.53
2019-05-04T03:55:00.491Z,1000.52
2019-05-04T03:55:41.082Z,1000.51
2019-05-04T03:56:21.687Z,1000.48
2019-05-04T03:57:05.220Z,1000.48
2019-05-04T03:57:42.795Z,1000.5
2019-05-04T03:58:25.321Z,1000.51
2019-05-04T03:59:04.784Z,1000.55
2019-05-04T03:59:46.101Z,1000.53
2019-05-04T04:00:25.825Z,1000.5
2019-05-04T04:01:06.264Z,1000.53
2019-05-04T04:01:46.441Z,1000.54
2019-05-04T04:02:26.999Z,1000.54
2019-05-04T04:03:07.605Z,1000.5
2019-05-04T04:03:48.202Z,1000.5
2019-05-04T04:04:28.797Z,1000.51
2019-05-04T04:05:09.391Z,1000.51
2019-05-04T04:05:49.984Z,1000.49
2019-05-04T04:06:30.608Z,1000.51
2019-05-04T04:07:11.188Z,1000.53
2019-05-04T04:07:51.757Z,1000.53
2019-05-04T04:08:35.369Z,1000.54
2019-05-04T04:09:16.008Z,1000.54
2019-05-04T04:09:56.130Z,1000.5
2019-05-04T04:10:36.175Z,1000.51
2019-05-04T04:11:15.456Z,1000.55
2019-05-04T04:11:55.596Z,1000.54
2019-05-04T04:12:36.553Z,1000.54
2019-05-04T04:13:16.507Z,1000.52
2019-05-04T04:13:57.137Z,1000.54
2019-05-04T04:14:37.677Z,1000.52
2019-05-04T04:15:18.249Z,1000.56
2019-05-04T04:15:58.795Z,1000.55
2019-05-04T04:16:39.354Z,1000.54
2019-05-04T04:17:19.956Z,1000.57
2019-05-04T04:18:00.577Z,1000.57
2019-05-04T04:18:41.169Z,1000.57
2019-05-04T04:19:21.755Z,1000.56
2019-05-04T04:20:02.320Z,1000.58
2019-05-04T04:20:45.670Z,1000.56
2019-05-04T04:21:26.310Z,1000.57
2019-05-04T04:22:05.814Z,1000.55
2019-05-04T04:22:45.513Z,1000.57
2019-05-04T04:23:25.229Z,1000.6
2019-05-04T04:24:06.524Z,1000.55
2019-05-04T04:24:46.325Z,1000.56
2019-05-04T04:25:26.947Z,1000.55
2019-05-04T04:26:07.553Z,1000.55
2019-05-04T04:26:48.153Z,1000.58
2019-05-04T04:27:28.726Z,1000.56
2019-05-04T04:28:20.044Z,1000.55
2019-05-04T04:28:49.839Z,1000.53
2019-05-04T04:29:30.408Z,1000.53
2019-05-04T04:30:11.024Z,1000.54
2019-05-04T04:30:51.636Z,1000.57
2019-05-04T04:31:32.229Z,1000.53
2019-05-04T04:32:15.293Z,1000.52
2019-05-04T04:32:55.829Z,1000.5
2019-05-04T04:33:48.104Z,1000.52
2019-05-04T04:34:15.627Z,1000.54
2019-05-04T04:34:55.570Z,1000.55
2019-05-04T04:35:35.920Z,1000.56
2019-05-04T04:36:16.284Z,1000.54
2019-05-04T04:36:56.924Z,1000.58
2019-05-04T04:37:37.544Z,1000.58
2019-05-04T04:38:18.126Z,1000.57
2019-05-04T04:38:58.668Z,1000.58
2019-05-04T04:39:40.212Z,1000.57
2019-05-04T04:40:19.816Z,1000.57
2019-05-04T04:41:00.385Z,1000.62
2019-05-04T04:41:43.041Z,1000.62
2019-05-04T04:42:21.550Z,1000.61
2019-05-04T04:43:02.168Z,1000.63
2019-05-04T04:43:45.392Z,1000.65
2019-05-04T04:44:26.092Z,1000.61
2019-05-04T04:45:06.181Z,1000.62
2019-05-04T04:45:44.962Z,1000.63
2019-05-04T04:46:25.753Z,1000.61
2019-05-04T04:47:06.158Z,1000.63
2019-05-04T04:47:46.713Z,1000.65
2019-05-04T04:48:29.646Z,1000.61
2019-05-04T04:49:07.304Z,1000.62
2019-05-04T04:49:47.836Z,1000.63
2019-05-04T04:50:28.387Z,1000.64
2019-05-04T04:51:08.968Z,1000.54
2019-05-04T04:51:49.543Z,1000.6
2019-05-04T04:52:30.106Z,1000.56
2019-05-04T04:53:10.681Z,1000.54
2019-05-04T04:53:51.265Z,1000.55
2019-05-04T04:54:31.849Z,1000.58
2019-05-04T04:55:19.805Z,1000.58
2019-05-04T04:55:56.086Z,1000.54
2019-05-04T04:56:35.161Z,1000.59
2019-05-04T04:57:16.663Z,1000.55
2019-05-04T04:57:57.325Z,1000.6
2019-05-04T04:58:35.250Z,1000.64
2019-05-04T04:59:15.810Z,1000.67
2019-05-04T04:59:56.359Z,1000.66
2019-05-04T05:00:37.168Z,1000.66
2019-05-04T05:01:17.729Z,1000.65
2019-05-04T05:01:58.312Z,1000.64
2019-05-04T05:02:45.430Z,1000.64
2019-05-04T05:03:19.475Z,1000.62
2019-05-04T05:04:00.025Z,1000.6
2019-05-04T05:04:40.599Z,1000.61
2019-05-04T05:05:21.226Z,1000.64
2019-05-04T05:06:01.796Z,1000.62
2019-05-04T05:06:42.484Z,1000.64
2019-05-04T05:07:25.263Z,1000.61
2019-05-04T05:08:04.936Z,1000.63
2019-05-04T05:08:44.771Z,1000.72
2019-05-04T05:09:26.628Z,1000.72
2019-05-04T05:10:06.042Z,1000.66
2019-05-04T05:10:46.138Z,1000.68
2019-05-04T05:11:26.533Z,1000.7
2019-05-04T05:12:07.085Z,1000.69
2019-05-04T05:12:47.657Z,1000.72
2019-05-04T05:13:28.205Z,1000.74
2019-05-04T05:14:08.768Z,1000.78
2019-05-04T05:14:49.363Z,1000.81
2019-05-04T05:15:29.929Z,1000.8
2019-05-04T05:16:10.488Z,1000.81
2019-05-04T05:16:51.056Z,1000.78
2019-05-04T05:17:31.627Z,1000.75
2019-05-04T05:18:12.210Z,1000.77
2019-05-04T05:18:54.176Z,1000.73
2019-05-04T05:19:34.841Z,1000.73
2019-05-04T05:20:14.389Z,1000.71
2019-05-04T05:20:54.895Z,1000.73
2019-05-04T05:21:35.056Z,1000.71
2019-05-04T05:22:15.621Z,1000.73
2019-05-04T05:22:56.160Z,1000.73
2019-05-04T05:23:36.719Z,1000.69
2019-05-04T05:24:17.311Z,1000.69
2019-05-04T05:24:57.955Z,1000.74
2019-05-04T05:25:38.520Z,1000.7
2019-05-04T05:26:19.094Z,1000.72
2019-05-04T05:26:59.701Z,1000.68
2019-05-04T05:27:40.289Z,1000.68
2019-05-04T05:28:20.893Z,1000.67
2019-05-04T05:29:01.585Z,1000.74
2019-05-04T05:29:42.154Z,1000.74
2019-05-04T05:30:24.681Z,1000.73
2019-05-04T05:31:04.599Z,1000.74
2019-05-04T05:31:44.551Z,1000.75
2019-05-04T05:32:25.272Z,1000.73
2019-05-04T05:33:05.036Z,1000.73
2019-05-04T05:33:47.709Z,1000.74
2019-05-04T05:34:26.289Z,1000.77
2019-05-04T05:35:06.876Z,1000.77
2019-05-04T05:35:47.436Z,1000.78
2019-05-04T05:36:28.025Z,1000.8
2019-05-04T05:37:08.588Z,1000.76
2019-05-04T05:37:49.162Z,1000.79
2019-05-04T05:38:29.696Z,1000.78
2019-05-04T05:39:10.265Z,1000.79
2019-05-04T05:39:58.226Z,1000.76
2019-05-04T05:40:31.397Z,1000.76
2019-05-04T05:41:16.173Z,1000.77
2019-05-04T05:41:55.573Z,1000.79
2019-05-04T05:42:35.238Z,1000.82
2019-05-04T05:43:15.516Z,1000.76
2019-05-04T05:43:59.014Z,1000.8
2019-05-04T05:44:38.550Z,1000.75
2019-05-04T05:45:19.331Z,1000.82
2019-05-04T05:45:58.682Z,1000.78
2019-05-04T05:46:37.978Z,1000.81
2019-05-04T05:47:19.331Z,1000.75
2019-05-04T05:47:58.411Z,1000.73
2019-05-04T05:48:38.711Z,1000.77
2019-05-04T05:49:19.343Z,1000.76
2019-05-04T05:49:59.883Z,1000.74
2019-05-04T05:50:40.087Z,1000.72
2019-05-04T05:51:20.623Z,1000.74
2019-05-04T05:52:01.671Z,1000.72
2019-05-04T05:52:41.822Z,1000.74
2019-05-04T05:53:24.227Z,1000.75
2019-05-04T05:54:04.605Z,1000.74
2019-05-04T05:54:44.687Z,1000.73
2019-05-04T05:55:27.903Z,1000.74
2019-05-04T05:56:04.978Z,1000.77
2019-05-04T05:56:45.254Z,1000.75
2019-05-04T05:57:25.817Z,1000.73
2019-05-04T05:58:06.359Z,1000.72
2019-05-04T05:58:46.957Z,1000.75
2019-05-04T05:59:27.998Z,1000.73
2019-05-04T06:00:08.862Z,1000.76
2019-05-04T06:00:49.203Z,1000.77
2019-05-04T06:01:29.604Z,1000.79
2019-05-04T06:02:10.387Z,1000.8
2019-05-04T06:02:53.419Z,1000.81
2019-05-04T06:03:32.193Z,1000.85
2019-05-04T06:04:13.919Z,1000.84
2019-05-04T06:04:53.355Z,1000.86
2019-05-04T06:05:32.801Z,1000.84
2019-05-04T06:06:14.341Z,1000.89
2019-05-04T06:06:54.867Z,1000.86
2019-05-04T06:07:34.603Z,1000.82
2019-05-04T06:08:15.688Z,1000.84
2019-05-04T06:08:55.751Z,1000.8
2019-05-04T06:09:36.305Z,1000.78
2019-05-04T06:10:29.321Z,1000.81
2019-05-04T06:10:58.019Z,1000.8
2019-05-04T06:11:38.742Z,1000.82
2019-05-04T06:12:20.108Z,1000.83
2019-05-04T06:12:59.882Z,1000.82
2019-05-04T06:13:39.850Z,1000.84
2019-05-04T06:14:20.467Z,1000.86
2019-05-04T06:15:01.037Z,1000.86
2019-05-04T06:15:41.693Z,1000.9
2019-05-04T06:16:24.662Z,1000.85
2019-05-04T06:17:04.327Z,1000.9
2019-05-04T06:17:47.034Z,1000.93
2019-05-04T06:18:25.137Z,1000.91
2019-05-04T06:19:05.052Z,1000.89
2019-05-04T06:19:45.590Z,1000.94
2019-05-04T06:20:26.181Z,1000.95
2019-05-04T06:21:06.729Z,1000.93
2019-05-04T06:21:47.293Z,1000.91
2019-05-04T06:22:27.894Z,1000.89
2019-05-04T06:23:08.463Z,1000.9
2019-05-04T06:23:49.049Z,1000.87
2019-05-04T06:24:29.638Z,1000.9
2019-05-04T06:25:10.276Z,1000.9
2019-05-04T06:25:50.815Z,1000.98
2019-05-04T06:26:31.395Z,1000.88
2019-05-04T06:27:14.246Z,1000.91
2019-05-04T06:27:54.376Z,1000.89
2019-05-04T06:28:34.733Z,1000.94
2019-05-04T06:29:14.342Z,1000.95
2019-05-04T06:29:54.571Z,1000.92
2019-05-04T06:30:35.165Z,1000.91
2019-05-04T06:31:15.725Z,1000.92
2019-05-04T06:31:56.292Z,1000.91
2019-05-04T06:32:36.862Z,1000.91
2019-05-04T06:33:17.440Z,1000.94
2019-05-04T06:33:58.000Z,1000.89
2019-05-04T06:34:38.631Z,1000.87
2019-05-04T06:35:19.214Z,1000.89
2019-05-04T06:35:59.785Z,1000.88
2019-05-04T06:36:45.378Z,1000.9
2019-05-04T06:37:24.932Z,1000.85
2019-05-04T06:38:08.295Z,1000.78
2019-05-04T06:38:46.233Z,1000.77
2019-05-04T06:39:25.728Z,1000.77
2019-05-04T06:40:06.143Z,1000.8
2019-05-04T06:40:44.529Z,1000.77
2019-05-04T06:41:33.038Z,1000.79
2019-05-04T06:42:14.784Z,1000.82
2019-05-04T06:42:49.419Z,1000.78
2019-05-04T06:43:51.909Z,1000.76
2019-05-04T06:44:10.204Z,1000.77
2019-05-04T06:44:54.436Z,1000.76
2019-05-04T06:45:31.464Z,1000.76
2019-05-04T06:46:12.147Z,1000.71
2019-05-04T06:46:52.770Z,1000.74
2019-05-04T06:47:34.669Z,1000.75
2019-05-04T06:48:14.199Z,1000.76
2019-05-04T06:48:55.072Z,1000.77
2019-05-04T06:49:35.166Z,1000.71
2019-05-04T06:50:20.031Z,1000.78
2019-05-04T06:50:59.829Z,1000.79
2019-05-04T06:51:39.435Z,1000.71
2019-05-04T06:52:25.117Z,1000.73
2019-05-04T06:52:59.890Z,1000.73
2019-05-04T06:53:39.187Z,1000.75
2019-05-04T06:54:19.412Z,1000.73
2019-05-04T06:55:10.478Z,1000.75
2019-05-04T06:55:40.684Z,1000.75
2019-05-04T06:56:26.305Z,1000.73
2019-05-04T06:57:01.952Z,1000.76
2019-05-04T06:57:44.511Z,1000.72
2019-05-04T06:58:24.853Z,1000.77
2019-05-04T06:59:05.870Z,1000.81
2019-05-04T06:59:44.548Z,1000.73
2019-05-04T07:00:25.254Z,1000.74
2019-05-04T07:01:05.764Z,1000.73
2019-05-04T07:01:46.470Z,1000.7
2019-05-04T07:02:30.234Z,1000.72
2019-05-04T07:03:09.324Z,1000.71
2019-05-04T07:03:49.214Z,1000.73
2019-05-04T07:04:35.073Z,1000.73
2019-05-04T07:05:17.012Z,1000.73
2019-05-04T07:05:55.404Z,1000.71
2019-05-04T07:06:35.410Z,1000.69
2019-05-04T07:07:21.473Z,1000.7
2019-05-04T07:08:04.214Z,1000.7
2019-05-04T07:08:40.199Z,1000.71
2019-05-04T07:09:19.448Z,1000.69
2019-05-04T07:09:59.988Z,1000.71
2019-05-04T07:10:51.535Z,1000.72
2019-05-04T07:11:28.858Z,1000.71
2019-05-04T07:12:07.386Z,1000.73
2019-05-04T07:12:41.428Z,1000.72
2019-05-04T07:13:25.665Z,1000.72
2019-05-04T07:14:04.441Z,1000.71
2019-05-04T07:14:44.987Z,1000.68
2019-05-04T07:15:25.214Z,1000.69
2019-05-04T07:16:05.783Z,1000.69
2019-05-04T07:16:46.439Z,1000.72
2019-05-04T07:17:27.038Z,1000.66
2019-05-04T07:18:07.634Z,1000.72
2019-05-04T07:18:48.203Z,1000.66
2019-05-04T07:19:28.773Z,1000.67
2019-05-04T07:20:09.606Z,1000.61
2019-05-04T07:20:50.429Z,1000.58
2019-05-04T07:21:31.395Z,1000.63
2019-05-04T07:22:11.973Z,1000.64
2019-05-04T07:22:54.175Z,1000.68
2019-05-04T07:23:34.149Z,1000.67
2019-05-04T07:24:15.305Z,1000.7
2019-05-04T07:24:54.724Z,1000.68
2019-05-04T07:25:35.002Z,1000.69
2019-05-04T07:26:16.273Z,1000.7
2019-05-04T07:26:56.823Z,1000.69
2019-05-04T07:27:37.847Z,1000.68
2019-05-04T07:28:18.688Z,1000.67
2019-05-04T07:28:59.269Z,1000.71
2019-05-04T07:29:40.047Z,1000.7
2019-05-04T07:30:20.642Z,1000.72
2019-05-04T07:31:01.469Z,1000.76
2019-05-04T07:31:42.240Z,1000.74
2019-05-04T07:32:24.427Z,1000.73
2019-05-04T07:33:04.430Z,1000.72
2019-05-04T07:33:47.503Z,1000.69
2019-05-04T07:34:24.941Z,1000.69
2019-05-04T07:35:05.597Z,1000.68
2019-05-04T07:35:46.358Z,1000.7
2019-05-04T07:36:26.927Z,1000.66
2019-05-04T07:37:07.833Z,1000.67
2019-05-04T07:37:51.426Z,1000.65
2019-05-04T07:38:28.983Z,1000.7
2019-05-04T07:39:09.805Z,1000.68
2019-05-04T07:39:50.285Z,1000.69
2019-05-04T07:40:33.161Z,1000.69
2019-05-04T07:41:21.047Z,1000.68
2019-05-04T07:41:56.321Z,1000.7
2019-05-04T07:42:33.751Z,1000.73
2019-05-04T07:43:15.114Z,1000.74
2019-05-04T07:43:54.711Z,1000.7
2019-05-04T07:44:34.655Z,1000.71
2019-05-04T07:45:15.306Z,1000.71
2019-05-04T07:46:00.022Z,1000.68
2019-05-04T07:46:39.374Z,1000.69
2019-05-04T07:47:19.240Z,1000.72
2019-05-04T07:47:59.371Z,1000.75
2019-05-04T07:48:39.621Z,1000.73
2019-05-04T07:49:19.386Z,1000.72
2019-05-04T07:49:59.692Z,1000.68
2019-05-04T07:50:42.043Z,1000.72
2019-05-04T07:51:20.939Z,1000.68
2019-05-04T07:52:01.579Z,1000.66
2019-05-04T07:52:44.393Z,1000.72
2019-05-04T07:53:24.931Z,1000.72
2019-05-04T07:54:05.083Z,1000.75
2019-05-04T07:54:45.174Z,1000.73
2019-05-04T07:55:25.901Z,1000.72
2019-05-04T07:56:06.573Z,1000.73
2019-05-04T07:56:48.364Z,1000.74
2019-05-04T07:57:28.981Z,1000.71
2019-05-04T07:58:09.444Z,1000.75
2019-05-04T07:58:48.839Z,1000.72
2019-05-04T07:59:29.479Z,1000.73
2019-05-04T08:00:10.545Z,1000.75
2019-05-04T08:00:50.771Z,1000.71
2019-05-04T08:01:31.346Z,1000.75
2019-05-04T08:02:11.953Z,1000.68
2019-05-04T08:02:52.579Z,1000.68
2019-05-04T08:03:35.149Z,1000.71
2019-05-04T08:04:14.186Z,1000.71
2019-05-04T08:04:54.679Z,1000.69
2019-05-04T08:05:43.930Z,1000.69
2019-05-04T08:06:18.219Z,1000.7
2019-05-04T08:07:00.261Z,1000.68
2019-05-04T08:07:39.678Z,1000.74
2019-05-04T08:08:19.757Z,1000.69
2019-05-04T08:09:05.086Z,1000.68
2019-05-04T08:09:40.134Z,1000.67
2019-05-04T08:10:20.403Z,1000.67
2019-05-04T08:11:00.091Z,1000.69
2019-05-04T08:11:48.037Z,1000.67
2019-05-04T08:12:20.948Z,1000.68
2019-05-04T08:13:04.191Z,1000.69
2019-05-04T08:13:42.093Z,1000.69
2019-05-04T08:14:24.322Z,1000.71
2019-05-04T08:15:09.875Z,1000.71
2019-05-04T08:15:44.709Z,1000.72
2019-05-04T08:16:24.849Z,1000.7
2019-05-04T08:17:05.417Z,1000.74
2019-05-04T08:17:46.064Z,1000.74
2019-05-04T08:18:26.635Z,1000.74
2019-05-04T08:19:07.166Z,1000.73
2019-05-04T08:19:47.714Z,1000.69
2019-05-04T08:20:28.295Z,1000.69
2019-05-04T08:21:08.887Z,1000.68
2019-05-04T08:21:49.453Z,1000.69
2019-05-04T08:22:30.012Z,1000.72
2019-05-04T08:23:10.617Z,1000.72